createdAt,value
2017-06-21T00:00:35.226Z,79
2017-06-21T00:01:42.711Z,80
2017-06-21T00:02:50.201Z,80.3
2017-06-21T00:03:57.694Z,79.3
2017-06-21T00:05:05.187Z,80.8
2017-06-21T00:06:12.982Z,79.4
2017-06-21T00:07:20.468Z,79.7
2017-06-21T00:08:27.967Z,79.6
2017-06-21T00:09:35.458Z,79.7
2017-06-21T00:10:42.946Z,80.5
2017-06-21T00:11:50.405Z,80
2017-06-21T00:12:57.562Z,80
2017-06-21T00:14:04.734Z,80.8
2017-06-21T00:15:12.220Z,81
2017-06-21T00:16:19.379Z,80.3
2017-06-21T00:17:27.120Z,80.9
2017-06-21T00:18:34.607Z,80.6
2017-06-21T00:19:41.773Z,81.1
2017-06-21T00:20:49.491Z,81.2
2017-06-21T00:21:56.985Z,80.1
2017-06-21T00:23:04.397Z,80.5
2017-06-21T00:24:11.891Z,80
2017-06-21T00:25:19.387Z,81.3
2017-06-21T00:26:26.876Z,81.1
2017-06-21T00:27:34.367Z,80.5
2017-06-21T00:28:42.151Z,80.8
2017-06-21T00:29:49.645Z,80.5
2017-06-21T00:30:57.156Z,79.3
2017-06-21T00:32:04.646Z,79
2017-06-21T00:33:12.142Z,79.8
2017-06-21T00:34:19.937Z,80.4
2017-06-21T00:35:27.429Z,81
2017-06-21T00:36:34.927Z,80.9
2017-06-21T00:37:42.090Z,81.6
2017-06-21T00:38:49.582Z,80.9
2017-06-21T00:39:57.330Z,81.3
2017-06-21T00:41:04.493Z,81
2017-06-21T00:42:11.986Z,81.3
2017-06-21T00:43:19.470Z,81.5
2017-06-21T00:44:26.301Z,80.5
2017-06-21T00:45:34.110Z,81
2017-06-21T00:46:41.634Z,81.6
2017-06-21T00:47:49.126Z,79.9
2017-06-21T00:48:56.615Z,81.1
2017-06-21T00:50:04.111Z,80
2017-06-21T00:51:11.900Z,81
2017-06-21T00:52:19.391Z,81.1
2017-06-21T00:53:26.890Z,82.8
2017-06-21T00:54:34.051Z,82.4
2017-06-21T00:55:41.543Z,81
2017-06-21T00:56:49.334Z,82.5
2017-06-21T00:57:56.823Z,82.5
2017-06-21T00:59:04.315Z,81.7
2017-06-21T01:00:11.803Z,81
2017-06-21T01:01:19.296Z,82.3
2017-06-21T01:02:26.701Z,81.9
2017-06-21T01:03:33.858Z,83
2017-06-21T01:04:41.020Z,83
2017-06-21T01:05:48.513Z,83.6
2017-06-21T01:06:56.001Z,83.5
2017-06-21T01:08:03.792Z,83.2
2017-06-21T01:09:11.276Z,83.3
2017-06-21T01:10:18.438Z,83.3
2017-06-21T01:11:25.932Z,82.6
2017-06-21T01:12:33.427Z,83.5
2017-06-21T01:13:41.167Z,82.7
2017-06-21T01:14:48.654Z,82.3
2017-06-21T01:15:56.146Z,82
2017-06-21T01:17:03.631Z,82.6
2017-06-21T01:18:11.117Z,83
2017-06-21T01:19:18.523Z,83
2017-06-21T01:20:25.359Z,83.7
2017-06-21T01:21:32.844Z,83.5
2017-06-21T01:22:40.334Z,84
2017-06-21T01:23:47.826Z,83.6
2017-06-21T01:24:55.565Z,83.3
2017-06-21T01:26:03.054Z,84.4
2017-06-21T01:27:10.545Z,83.8
2017-06-21T01:28:18.032Z,82.7
2017-06-21T01:29:25.196Z,84
2017-06-21T01:30:32.987Z,84.3
2017-06-21T01:31:40.473Z,84.1
2017-06-21T01:32:47.964Z,83.4
2017-06-21T01:33:55.125Z,82.5
2017-06-21T01:35:02.615Z,84.1
2017-06-21T01:36:10.356Z,84.4
2017-06-21T01:37:17.840Z,83.6
2017-06-21T01:38:25.329Z,83.8
2017-06-21T01:39:32.815Z,84.1
2017-06-21T01:40:40.300Z,84.4
2017-06-21T01:41:48.096Z,84.9
2017-06-21T01:42:55.583Z,84
2017-06-21T01:44:02.410Z,84.3
2017-06-21T01:45:09.900Z,84.9
2017-06-21T01:46:17.387Z,85
2017-06-21T01:47:25.182Z,85.1
2017-06-21T01:48:32.666Z,84.6
2017-06-21T01:49:40.154Z,85.1
2017-06-21T01:50:47.639Z,83.3
2017-06-21T01:51:55.167Z,83.9
2017-06-21T01:53:02.954Z,83.8
2017-06-21T01:54:10.449Z,83.3
2017-06-21T01:55:17.948Z,83.2
2017-06-21T01:56:25.434Z,84.4
2017-06-21T01:57:32.929Z,83.9
2017-06-21T01:58:40.699Z,83.1
2017-06-21T01:59:48.184Z,82.9
2017-06-21T02:00:55.673Z,84
2017-06-21T02:02:03.163Z,83.8
2017-06-21T02:03:10.319Z,83.8
2017-06-21T02:04:18.117Z,84.2
2017-06-21T02:05:25.604Z,84.1
2017-06-21T02:06:33.096Z,85.5
2017-06-21T02:07:40.255Z,84.4
2017-06-21T02:08:47.737Z,84.1
2017-06-21T02:09:55.486Z,85.3
2017-06-21T02:11:02.657Z,84.5
2017-06-21T02:12:10.140Z,85
2017-06-21T02:13:17.628Z,83.9
2017-06-21T02:14:25.123Z,83.2
2017-06-21T02:15:32.862Z,84.8
2017-06-21T02:16:40.351Z,85.8
2017-06-21T02:17:47.856Z,84.3
2017-06-21T02:18:55.346Z,85.1
2017-06-21T02:20:02.507Z,85.9
2017-06-21T02:21:10.299Z,85.1
2017-06-21T02:22:17.785Z,84
2017-06-21T02:23:24.949Z,85.2
2017-06-21T02:24:32.439Z,84.9
2017-06-21T02:25:39.929Z,84.6
2017-06-21T02:26:47.410Z,84.4
2017-06-21T02:27:54.575Z,85.5
2017-06-21T02:29:02.088Z,85.1
2017-06-21T02:30:08.924Z,84.7
2017-06-21T02:31:16.413Z,84.8
2017-06-21T02:32:24.159Z,85
2017-06-21T02:33:31.321Z,85.9
2017-06-21T02:34:38.808Z,85.9
2017-06-21T02:35:45.967Z,85.9
2017-06-21T02:36:52.796Z,85.9
2017-06-21T02:38:00.261Z,85.6
2017-06-21T02:39:07.424Z,85.8
2017-06-21T02:40:15.172Z,85.8
2017-06-21T02:41:22.326Z,85.8
2017-06-21T02:42:29.479Z,85.9
2017-06-21T02:43:36.882Z,85.7
2017-06-21T02:44:44.373Z,85.7
2017-06-21T02:45:51.862Z,86.3
2017-06-21T02:46:59.350Z,85.7
2017-06-21T02:48:06.832Z,86
2017-06-21T02:49:14.569Z,85.6
2017-06-21T02:50:22.055Z,86.1
2017-06-21T02:51:29.538Z,85.6
2017-06-21T02:52:37.028Z,85.6
2017-06-21T02:53:44.515Z,85.7
2017-06-21T02:54:52.260Z,85.6
2017-06-21T02:55:59.752Z,83.8
2017-06-21T02:57:07.237Z,85.6
2017-06-21T02:58:14.721Z,85.9
2017-06-21T02:59:22.217Z,84.8
2017-06-21T03:00:29.946Z,85.6
2017-06-21T03:01:37.465Z,85.6
2017-06-21T03:02:44.952Z,85.6
2017-06-21T03:03:52.113Z,85.6
2017-06-21T03:04:59.600Z,85.1
2017-06-21T03:06:07.394Z,85.6
2017-06-21T03:07:14.883Z,85.9
2017-06-21T03:08:22.375Z,85.6
2017-06-21T03:09:29.863Z,85.6
2017-06-21T03:10:37.347Z,83.5
2017-06-21T03:11:45.083Z,85.6
2017-06-21T03:12:52.569Z,85.1
2017-06-21T03:14:00.059Z,85.6
2017-06-21T03:15:07.555Z,85.6
2017-06-21T03:16:15.078Z,85.6
2017-06-21T03:17:22.863Z,85.1
2017-06-21T03:18:30.353Z,85.6
2017-06-21T03:19:37.843Z,84.9
2017-06-21T03:20:45.003Z,84.7
2017-06-21T03:21:52.494Z,84.1
2017-06-21T03:23:00.234Z,84.5
2017-06-21T03:24:07.748Z,84.3
2017-06-21T03:25:15.268Z,84.4
2017-06-21T03:26:22.759Z,83.4
2017-06-21T03:27:30.254Z,83.8
2017-06-21T03:28:37.767Z,83.4
2017-06-21T03:29:45.254Z,83.6
2017-06-21T03:30:52.419Z,83.7
2017-06-21T03:31:59.572Z,82.7
2017-06-21T03:33:07.073Z,83.1
2017-06-21T03:34:14.869Z,83.2
2017-06-21T03:35:22.366Z,82.9
2017-06-21T03:36:29.860Z,83.4
2017-06-21T03:37:37.013Z,83.2
2017-06-21T03:38:44.498Z,83.3
2017-06-21T03:39:52.233Z,82.9
2017-06-21T03:40:59.400Z,82.9
2017-06-21T03:42:06.905Z,83
2017-06-21T03:43:14.397Z,83.3
2017-06-21T03:44:21.878Z,83.3
2017-06-21T03:45:29.622Z,83.2
2017-06-21T03:46:37.110Z,83.3
2017-06-21T03:47:44.598Z,83.1
2017-06-21T03:48:52.088Z,83.1
2017-06-21T03:49:59.575Z,83.3
2017-06-21T03:51:07.055Z,83.3
2017-06-21T03:52:14.216Z,83.2
2017-06-21T03:53:21.056Z,83.2
2017-06-21T03:54:28.549Z,83
2017-06-21T03:55:36.034Z,82.8
2017-06-21T03:56:43.786Z,83.2
2017-06-21T03:57:51.280Z,83.1
2017-06-21T03:58:58.771Z,82.4
2017-06-21T04:00:06.263Z,82.6
2017-06-21T04:01:13.749Z,83.1
2017-06-21T04:02:21.543Z,82.6
2017-06-21T04:03:29.037Z,82.6
2017-06-21T04:04:36.530Z,81.8
2017-06-21T04:05:44.022Z,81.3
2017-06-21T04:06:51.522Z,82.2
2017-06-21T04:07:59.269Z,82.1
2017-06-21T04:09:06.760Z,82.1
2017-06-21T04:10:14.249Z,81.3
2017-06-21T04:11:21.738Z,82.2
2017-06-21T04:12:29.219Z,82
2017-06-21T04:13:36.966Z,82
2017-06-21T04:14:44.453Z,82.2
2017-06-21T04:15:51.944Z,81.5
2017-06-21T04:16:59.438Z,82.7
2017-06-21T04:18:06.931Z,82.1
2017-06-21T04:19:14.665Z,81.5
2017-06-21T04:20:22.159Z,81.7
2017-06-21T04:21:29.647Z,81.7
2017-06-21T04:22:37.141Z,81.8
2017-06-21T04:23:44.642Z,81.9
2017-06-21T04:24:52.128Z,81.1
2017-06-21T04:25:59.615Z,81.4
2017-06-21T04:27:06.777Z,80.9
2017-06-21T04:28:14.567Z,82.2
2017-06-21T04:29:21.660Z,80.7
2017-06-21T04:30:29.153Z,81
2017-06-21T04:31:36.635Z,81.3
2017-06-21T04:32:44.134Z,81
2017-06-21T04:33:51.920Z,81.2
2017-06-21T04:34:59.404Z,80.6
2017-06-21T04:36:06.897Z,80.5
2017-06-21T04:37:13.723Z,80.3
2017-06-21T04:38:21.217Z,80.7
2017-06-21T04:39:29.007Z,79.8
2017-06-21T04:40:36.499Z,79.8
2017-06-21T04:41:43.982Z,79.4
2017-06-21T04:42:51.471Z,80.1
2017-06-21T04:43:58.632Z,80.4
2017-06-21T04:45:06.148Z,80.2
2017-06-21T04:46:13.642Z,79.8
2017-06-21T04:47:21.133Z,79.8
2017-06-21T04:48:28.621Z,80
2017-06-21T04:49:35.780Z,80.3
2017-06-21T04:50:43.574Z,80.2
2017-06-21T04:51:50.733Z,79.6
2017-06-21T04:52:58.218Z,79.3
2017-06-21T04:54:05.391Z,79.1
2017-06-21T04:55:12.886Z,79.5
2017-06-21T04:56:20.679Z,79.8
2017-06-21T04:57:28.176Z,79.8
2017-06-21T04:58:35.667Z,80.3
2017-06-21T04:59:43.158Z,79.5
2017-06-21T05:00:50.648Z,79.8
2017-06-21T05:01:58.212Z,79.4
2017-06-21T05:03:05.705Z,79.4
2017-06-21T05:04:12.910Z,79.6
2017-06-21T05:05:20.408Z,79.1
2017-06-21T05:06:27.899Z,78.9
2017-06-21T05:07:35.682Z,77.7
2017-06-21T05:08:43.173Z,78.1
2017-06-21T05:09:50.664Z,77.5
2017-06-21T05:10:58.158Z,78.4
2017-06-21T05:12:05.651Z,78.3
2017-06-21T05:13:13.445Z,78.4
2017-06-21T05:14:20.931Z,78.3
2017-06-21T05:15:28.418Z,77.6
2017-06-21T05:16:35.908Z,77
2017-06-21T05:17:43.072Z,77.3
2017-06-21T05:18:50.860Z,77.7
2017-06-21T05:19:58.345Z,77
2017-06-21T05:21:05.850Z,77.2
2017-06-21T05:22:13.339Z,77.4
2017-06-21T05:23:20.172Z,77.4
2017-06-21T05:24:27.657Z,77
2017-06-21T05:25:35.145Z,77.1
2017-06-21T05:26:42.632Z,77.1
2017-06-21T05:27:50.128Z,77
2017-06-21T05:28:57.624Z,77
2017-06-21T05:30:05.114Z,77.1
2017-06-21T05:31:12.619Z,76.1
2017-06-21T05:32:20.109Z,76.2
2017-06-21T05:33:27.598Z,77.3
2017-06-21T05:34:35.386Z,76.1
2017-06-21T05:35:42.869Z,75.8
2017-06-21T05:36:50.355Z,75.7
2017-06-21T05:37:57.175Z,74.7
2017-06-21T05:39:04.669Z,75
2017-06-21T05:40:12.133Z,75
2017-06-21T05:41:19.292Z,73.9
2017-06-21T05:42:26.780Z,73.8
2017-06-21T05:43:34.275Z,74.7
2017-06-21T05:44:41.757Z,73.2
2017-06-21T05:45:49.215Z,72.5
2017-06-21T05:46:56.701Z,72.8
2017-06-21T05:48:04.196Z,73
2017-06-21T05:49:11.682Z,71.9
2017-06-21T05:50:19.170Z,72.4
2017-06-21T05:51:26.957Z,72.9
2017-06-21T05:52:34.461Z,71.6
2017-06-21T05:53:41.950Z,71.5
2017-06-21T05:54:49.436Z,71.2
2017-06-21T05:55:56.925Z,71.1
2017-06-21T05:57:04.412Z,72
2017-06-21T05:58:11.908Z,72.3
2017-06-21T05:59:19.396Z,71.6
2017-06-21T06:00:26.887Z,72.1
2017-06-21T06:01:34.381Z,72.1
2017-06-21T06:02:42.162Z,71.2
2017-06-21T06:03:49.652Z,71.9
2017-06-21T06:04:57.138Z,70.7
2017-06-21T06:06:04.629Z,70.5
2017-06-21T06:07:12.118Z,69.8
2017-06-21T06:08:19.608Z,70.4
2017-06-21T06:09:27.098Z,71.6
2017-06-21T06:10:34.592Z,70.4
2017-06-21T06:11:42.084Z,73.1
2017-06-21T06:12:49.575Z,70.4
2017-06-21T06:13:57.062Z,70.7
2017-06-21T06:15:04.222Z,69.8
2017-06-21T06:16:11.709Z,68.9
2017-06-21T06:17:19.499Z,70.1
2017-06-21T06:18:26.669Z,67.9
2017-06-21T06:19:34.155Z,68.5
2017-06-21T06:20:41.652Z,68.4
2017-06-21T06:21:49.141Z,68.6
2017-06-21T06:22:56.932Z,68.4
2017-06-21T06:24:04.423Z,69.6
2017-06-21T06:25:11.911Z,68.3
2017-06-21T06:26:19.398Z,69.9
2017-06-21T06:27:26.892Z,67.1
2017-06-21T06:28:34.679Z,67.3
2017-06-21T06:29:42.172Z,69.6
2017-06-21T06:30:49.666Z,66.8
2017-06-21T06:31:57.148Z,65.6
2017-06-21T06:33:04.636Z,66.3
2017-06-21T06:34:12.126Z,67.7
2017-06-21T06:35:19.611Z,68.8
2017-06-21T06:36:27.099Z,67
2017-06-21T06:37:34.591Z,67.3
2017-06-21T06:38:42.079Z,66.8
2017-06-21T06:39:49.538Z,67.1
2017-06-21T06:40:57.028Z,66.5
2017-06-21T06:42:04.521Z,66.8
2017-06-21T06:43:12.010Z,66.4
2017-06-21T06:44:19.503Z,66.9
2017-06-21T06:45:27.298Z,66.8
2017-06-21T06:46:34.131Z,66.7
2017-06-21T06:47:41.299Z,66.9
2017-06-21T06:48:48.787Z,65.8
2017-06-21T06:49:56.284Z,66
2017-06-21T06:51:04.073Z,66
2017-06-21T06:52:11.562Z,67.1
2017-06-21T06:53:18.720Z,65.8
2017-06-21T06:54:26.209Z,65.9
2017-06-21T06:55:33.701Z,63.8
2017-06-21T06:56:41.190Z,64.8
2017-06-21T06:57:48.680Z,63.8
2017-06-21T06:58:56.175Z,64.4
2017-06-21T07:00:03.696Z,64.8
2017-06-21T07:01:10.858Z,65.1
2017-06-21T07:02:18.648Z,66.7
2017-06-21T07:03:26.134Z,65.8
2017-06-21T07:04:33.303Z,65.8
2017-06-21T07:05:40.470Z,65.3
2017-06-21T07:06:47.960Z,66.3
2017-06-21T07:07:55.437Z,65.1
2017-06-21T07:09:02.931Z,64.1
2017-06-21T07:10:10.422Z,65.1
2017-06-21T07:11:17.912Z,60.9
2017-06-21T07:12:25.407Z,63.4
2017-06-21T07:13:32.904Z,62.4
2017-06-21T07:14:40.073Z,63.9
2017-06-21T07:15:47.560Z,63.1
2017-06-21T07:16:55.047Z,63.9
2017-06-21T07:18:02.544Z,63.5
2017-06-21T07:19:09.999Z,62.8
2017-06-21T07:20:17.494Z,62.9
2017-06-21T07:21:25.016Z,62.2
2017-06-21T07:22:32.531Z,64.9
2017-06-21T07:23:39.694Z,62.9
2017-06-21T07:24:47.494Z,60.2
2017-06-21T07:25:54.996Z,61.5
2017-06-21T07:27:02.498Z,61.8
2017-06-21T07:28:09.672Z,61.5
2017-06-21T07:29:17.200Z,60.7
2017-06-21T07:30:24.993Z,62
2017-06-21T07:31:32.161Z,63.4
2017-06-21T07:32:39.655Z,62.4
2017-06-21T07:33:47.153Z,63.1
2017-06-21T07:34:54.646Z,63.2
2017-06-21T07:36:02.134Z,63.4
2017-06-21T07:37:09.631Z,63.4
2017-06-21T07:38:16.799Z,63.2
2017-06-21T07:39:24.292Z,63.8
2017-06-21T07:40:31.790Z,64.9
2017-06-21T07:41:39.270Z,64.1
2017-06-21T07:42:46.760Z,62.8
2017-06-21T07:43:53.923Z,63.3
2017-06-21T07:45:01.420Z,61.8
2017-06-21T07:46:08.580Z,63.2
2017-06-21T07:47:16.372Z,63.7
2017-06-21T07:48:23.862Z,61.5
2017-06-21T07:49:31.370Z,60.6
2017-06-21T07:50:38.527Z,60.2
2017-06-21T07:51:46.018Z,61.6
2017-06-21T07:52:53.737Z,60.3
2017-06-21T07:54:01.249Z,60.1
2017-06-21T07:55:08.087Z,60
2017-06-21T07:56:15.581Z,60.9
2017-06-21T07:57:23.076Z,60.9
2017-06-21T07:58:30.865Z,62.2
2017-06-21T07:59:38.033Z,58.5
2017-06-21T08:00:45.525Z,60.1
2017-06-21T08:01:53.019Z,60
2017-06-21T08:03:00.532Z,60
2017-06-21T08:04:08.336Z,58.5
2017-06-21T08:05:15.827Z,59
2017-06-21T08:06:23.314Z,59.6
2017-06-21T08:07:30.811Z,60.8
2017-06-21T08:08:38.313Z,59.1
2017-06-21T08:09:46.106Z,61
2017-06-21T08:10:53.615Z,59.1
2017-06-21T08:12:00.778Z,60
2017-06-21T08:13:08.266Z,58.8
2017-06-21T08:14:15.760Z,60
2017-06-21T08:15:23.258Z,61.9
2017-06-21T08:16:30.756Z,61.1
2017-06-21T08:17:38.255Z,62.3
2017-06-21T08:18:45.747Z,58.1
2017-06-21T08:19:53.247Z,57.8
2017-06-21T08:21:01.040Z,59.4
2017-06-21T08:22:08.201Z,57.8
2017-06-21T08:23:15.357Z,60.9
2017-06-21T08:24:22.851Z,58.7
2017-06-21T08:25:30.011Z,61.2
2017-06-21T08:26:37.803Z,59.9
2017-06-21T08:27:45.298Z,58.9
2017-06-21T08:28:52.790Z,60
2017-06-21T08:30:00.283Z,59
2017-06-21T08:31:07.451Z,58.8
2017-06-21T08:32:14.941Z,60.2
2017-06-21T08:33:22.431Z,58.2
2017-06-21T08:34:29.615Z,59.4
2017-06-21T08:35:37.108Z,57.6
2017-06-21T08:36:44.608Z,57
2017-06-21T08:37:52.412Z,56.8
2017-06-21T08:38:59.919Z,57.4
2017-06-21T08:40:07.107Z,59.3
2017-06-21T08:41:14.598Z,59.8
2017-06-21T08:42:22.119Z,57.9
2017-06-21T08:43:29.909Z,57.2
2017-06-21T08:44:37.401Z,56.7
2017-06-21T08:45:44.895Z,57.2
2017-06-21T08:46:52.389Z,56.7
2017-06-21T08:47:59.883Z,56.1
2017-06-21T08:49:07.380Z,58.7
2017-06-21T08:50:14.882Z,59
2017-06-21T08:51:22.372Z,56.9
2017-06-21T08:52:29.908Z,55.2
2017-06-21T08:53:37.397Z,53.8
2017-06-21T08:54:45.188Z,54.8
2017-06-21T08:55:52.684Z,53.5
2017-06-21T08:57:00.179Z,53.1
2017-06-21T08:58:07.674Z,52.7
2017-06-21T08:59:14.852Z,53.1
2017-06-21T09:00:22.354Z,52
2017-06-21T09:01:29.854Z,50.8
2017-06-21T09:02:37.346Z,53.4
2017-06-21T09:03:44.836Z,52
2017-06-21T09:04:52.336Z,50.9
2017-06-21T09:05:59.503Z,52.5
2017-06-21T09:07:06.673Z,55.4
2017-06-21T09:08:14.173Z,54
2017-06-21T09:09:21.685Z,52.4
2017-06-21T09:10:29.500Z,54.9
2017-06-21T09:11:36.338Z,52.3
2017-06-21T09:12:43.860Z,51.9
2017-06-21T09:13:51.351Z,52.9
2017-06-21T09:14:58.852Z,51.8
2017-06-21T09:16:06.332Z,51.5
2017-06-21T09:17:13.500Z,54.7
2017-06-21T09:18:20.999Z,53
2017-06-21T09:19:28.493Z,49.9
2017-06-21T09:20:35.989Z,50.9
2017-06-21T09:21:43.789Z,51.7
2017-06-21T09:22:50.952Z,52.6
2017-06-21T09:23:58.932Z,52.7
2017-06-21T09:25:06.430Z,53.8
2017-06-21T09:26:14.151Z,53.3
2017-06-21T09:27:21.652Z,54.2
2017-06-21T09:28:29.152Z,51.2
2017-06-21T09:29:36.646Z,51
2017-06-21T09:30:44.145Z,50.3
2017-06-21T09:31:50.977Z,51.7
2017-06-21T09:32:58.451Z,51.7
2017-06-21T09:34:05.961Z,53.2
2017-06-21T09:35:13.458Z,50.9
2017-06-21T09:36:20.960Z,50.9
2017-06-21T09:37:28.133Z,49.9
2017-06-21T09:38:35.929Z,47.8
2017-06-21T09:39:43.425Z,49.1
2017-06-21T09:40:50.934Z,49.1
2017-06-21T09:41:58.435Z,49
2017-06-21T09:43:05.943Z,50
2017-06-21T09:44:13.738Z,49.2
2017-06-21T09:45:21.234Z,50.7
2017-06-21T09:46:28.730Z,46.7
2017-06-21T09:47:36.230Z,51.1
2017-06-21T09:48:43.734Z,52.1
2017-06-21T09:49:51.239Z,48.1
2017-06-21T09:50:58.735Z,46.2
2017-06-21T09:52:06.243Z,46.1
2017-06-21T09:53:13.739Z,47.7
2017-06-21T09:54:21.538Z,46
2017-06-21T09:55:29.050Z,44
2017-06-21T09:56:36.547Z,46.5
2017-06-21T09:57:44.046Z,46.3
2017-06-21T09:58:51.548Z,47.5
2017-06-21T09:59:59.345Z,44.8
2017-06-21T10:01:06.519Z,45.7
2017-06-21T10:02:14.034Z,46
2017-06-21T10:03:21.536Z,48.6
2017-06-21T10:04:29.041Z,47.4
2017-06-21T10:05:36.840Z,48.8
2017-06-21T10:06:44.346Z,49
2017-06-21T10:07:51.519Z,46.3
2017-06-21T10:08:59.026Z,45
2017-06-21T10:10:06.521Z,44
2017-06-21T10:11:14.314Z,45.6
2017-06-21T10:12:21.829Z,45.6
2017-06-21T10:13:29.322Z,46
2017-06-21T10:14:36.827Z,46.4
2017-06-21T10:15:44.335Z,45.5
2017-06-21T10:16:52.143Z,44.5
2017-06-21T10:17:59.642Z,47.6
2017-06-21T10:19:06.854Z,44.9
2017-06-21T10:20:14.030Z,44.1
2017-06-21T10:21:21.530Z,44.9
2017-06-21T10:22:29.025Z,47
2017-06-21T10:23:36.527Z,46.5
2017-06-21T10:24:44.037Z,47.5
2017-06-21T10:25:51.541Z,50
2017-06-21T10:26:59.009Z,45.8
2017-06-21T10:28:06.522Z,46
2017-06-21T10:29:14.050Z,45.9
2017-06-21T10:30:21.561Z,44.3
2017-06-21T10:31:29.057Z,47
2017-06-21T10:32:36.851Z,45.5
2017-06-21T10:33:44.348Z,47.2
2017-06-21T10:34:51.859Z,45
2017-06-21T10:35:59.024Z,43.2
2017-06-21T10:37:06.524Z,45.4
2017-06-21T10:38:14.355Z,46.6
2017-06-21T10:39:21.853Z,43
2017-06-21T10:40:29.352Z,45.2
2017-06-21T10:41:36.852Z,44.1
2017-06-21T10:42:44.350Z,41.2
2017-06-21T10:43:52.154Z,42
2017-06-21T10:44:59.325Z,41.2
2017-06-21T10:46:06.856Z,42.8
2017-06-21T10:47:14.360Z,44.1
2017-06-21T10:48:21.866Z,42
2017-06-21T10:49:29.050Z,45
2017-06-21T10:50:36.555Z,42.2
2017-06-21T10:51:43.724Z,43.1
2017-06-21T10:52:51.241Z,43.8
2017-06-21T10:53:58.742Z,40.8
2017-06-21T10:55:05.598Z,43
2017-06-21T10:56:13.086Z,40.6
2017-06-21T10:57:20.597Z,42.3
2017-06-21T10:58:28.096Z,42.5
2017-06-21T10:59:35.894Z,42.1
2017-06-21T11:00:43.389Z,41.2
2017-06-21T11:01:50.889Z,40.4
2017-06-21T11:02:58.390Z,43.6
2017-06-21T11:04:05.890Z,40.3
2017-06-21T11:05:13.698Z,40.2
2017-06-21T11:06:20.866Z,43.1
2017-06-21T11:07:28.368Z,43.7
2017-06-21T11:08:35.870Z,42.1
2017-06-21T11:09:43.043Z,41.9
2017-06-21T11:10:50.511Z,41.6
2017-06-21T11:11:57.675Z,42.1
2017-06-21T11:13:05.175Z,45.3
2017-06-21T11:14:12.681Z,41.6
2017-06-21T11:15:20.183Z,43.5
2017-06-21T11:16:27.703Z,38.6
2017-06-21T11:17:35.213Z,39.3
2017-06-21T11:18:42.380Z,42
2017-06-21T11:19:49.878Z,40.4
2017-06-21T11:20:57.377Z,41.1
2017-06-21T11:22:05.195Z,39.7
2017-06-21T11:23:12.699Z,39.4
2017-06-21T11:24:19.877Z,40.7
2017-06-21T11:25:27.387Z,37.9
2017-06-21T11:26:34.908Z,37.9
2017-06-21T11:27:42.718Z,40.7
2017-06-21T11:28:49.876Z,40.4
2017-06-21T11:29:57.379Z,42.1
2017-06-21T11:31:04.880Z,40.8
2017-06-21T11:32:12.387Z,39.4
2017-06-21T11:33:20.439Z,39
2017-06-21T11:34:27.942Z,39.4
2017-06-21T11:35:34.809Z,39
2017-06-21T11:36:42.311Z,38.5
2017-06-21T11:37:49.815Z,39.4
2017-06-21T11:38:57.315Z,39
2017-06-21T11:40:04.819Z,37.6
2017-06-21T11:41:12.312Z,36.3
2017-06-21T11:42:19.818Z,36.1
2017-06-21T11:43:27.613Z,40.3
2017-06-21T11:44:35.114Z,39.3
2017-06-21T11:45:42.612Z,38.2
2017-06-21T11:46:49.795Z,38.4
2017-06-21T11:47:57.300Z,35.7
2017-06-21T11:49:05.146Z,36.4
2017-06-21T11:50:12.315Z,37.8
2017-06-21T11:51:19.818Z,36.1
2017-06-21T11:52:27.319Z,37.1
2017-06-21T11:53:34.495Z,38.2
2017-06-21T11:54:42.367Z,37.5
2017-06-21T11:55:49.868Z,36.8
2017-06-21T11:56:57.367Z,35.7
2017-06-21T11:58:04.869Z,35.8
2017-06-21T11:59:12.370Z,36.8
2017-06-21T12:00:19.842Z,40.3
2017-06-21T12:01:27.338Z,37.4
2017-06-21T12:02:34.833Z,38.7
2017-06-21T12:03:42.341Z,41.7
2017-06-21T12:04:49.857Z,40.2
2017-06-21T12:05:57.756Z,38
2017-06-21T12:07:05.261Z,38.9
2017-06-21T12:08:12.757Z,35.3
2017-06-21T12:09:19.933Z,35.4
2017-06-21T12:10:27.110Z,36.1
2017-06-21T12:11:34.961Z,36.7
2017-06-21T12:12:42.143Z,37.4
2017-06-21T12:13:49.654Z,38.3
2017-06-21T12:14:56.825Z,37
2017-06-21T12:16:04.328Z,37
2017-06-21T12:17:12.188Z,36.7
2017-06-21T12:18:19.718Z,36.9
2017-06-21T12:19:26.893Z,37
2017-06-21T12:20:34.401Z,39.9
2017-06-21T12:21:41.908Z,36.5
2017-06-21T12:22:49.435Z,39
2017-06-21T12:23:56.939Z,38.2
2017-06-21T12:25:04.435Z,35.9
2017-06-21T12:26:11.952Z,36.6
2017-06-21T12:27:19.126Z,35.6
2017-06-21T12:28:26.974Z,36.9
2017-06-21T12:29:34.138Z,36
2017-06-21T12:30:41.330Z,38
2017-06-21T12:31:48.824Z,36.5
2017-06-21T12:32:56.333Z,36.9
2017-06-21T12:34:04.142Z,40.8
2017-06-21T12:35:11.641Z,38.7
2017-06-21T12:36:19.148Z,36.6
2017-06-21T12:37:26.649Z,36.9
2017-06-21T12:38:33.825Z,35.8
2017-06-21T12:39:41.623Z,37.4
2017-06-21T12:40:49.130Z,37.4
2017-06-21T12:41:56.635Z,37.8
2017-06-21T12:43:03.823Z,36.2
2017-06-21T12:44:10.988Z,37.1
2017-06-21T12:45:18.161Z,37.5
2017-06-21T12:46:25.662Z,37.7
2017-06-21T12:47:33.164Z,37
2017-06-21T12:48:40.663Z,36.6
2017-06-21T12:49:47.835Z,34.6
2017-06-21T12:50:55.632Z,34.5
2017-06-21T12:52:03.135Z,35
2017-06-21T12:53:10.634Z,37.1
2017-06-21T12:54:18.141Z,37.8
2017-06-21T12:55:25.653Z,35.2
2017-06-21T12:56:33.455Z,37.1
2017-06-21T12:57:40.950Z,36
2017-06-21T12:58:48.447Z,34.7
2017-06-21T12:59:55.632Z,32.3
2017-06-21T13:01:03.135Z,33.2
2017-06-21T13:02:10.300Z,33.3
2017-06-21T13:03:17.799Z,34.3
2017-06-21T13:04:25.305Z,33.8
2017-06-21T13:05:32.811Z,36.3
2017-06-21T13:06:40.314Z,34.9
2017-06-21T13:07:48.135Z,35.8
2017-06-21T13:08:55.310Z,34.7
2017-06-21T13:10:02.816Z,33.1
2017-06-21T13:11:10.321Z,35.6
2017-06-21T13:12:17.821Z,35.3
2017-06-21T13:13:25.628Z,36
2017-06-21T13:14:32.808Z,32.8
2017-06-21T13:15:40.310Z,34.1
2017-06-21T13:16:47.818Z,34.7
2017-06-21T13:17:55.320Z,35.9
2017-06-21T13:19:03.122Z,35.6
2017-06-21T13:20:10.629Z,33.5
2017-06-21T13:21:18.137Z,33.8
2017-06-21T13:22:25.323Z,33.3
2017-06-21T13:23:32.840Z,32
2017-06-21T13:24:40.341Z,32.6
2017-06-21T13:25:47.841Z,32.9
2017-06-21T13:26:55.343Z,33.6
2017-06-21T13:28:02.851Z,31.8
2017-06-21T13:29:10.354Z,33.4
2017-06-21T13:31:25.289Z,33.4
2017-06-21T13:32:32.462Z,34.1
2017-06-21T13:33:39.968Z,33.2
2017-06-21T13:34:47.480Z,32.9
2017-06-21T13:35:55.343Z,32.3
2017-06-21T13:37:02.852Z,35
2017-06-21T13:39:17.476Z,38.9
2017-06-21T13:40:24.976Z,35.8
2017-06-21T13:41:32.776Z,36.1
2017-06-21T13:42:40.284Z,36
2017-06-21T13:43:47.785Z,35.8
2017-06-21T13:44:55.281Z,35.6
2017-06-21T13:46:02.785Z,34.7
2017-06-21T13:47:10.642Z,35
2017-06-21T13:48:18.144Z,32.4
2017-06-21T13:49:25.651Z,33.4
2017-06-21T13:50:33.146Z,33.8
2017-06-21T13:51:40.326Z,34
2017-06-21T13:52:48.181Z,36
2017-06-21T13:53:55.687Z,36.7
2017-06-21T13:55:03.213Z,36.3
2017-06-21T13:56:10.717Z,36.3
2017-06-21T13:57:18.243Z,35.2
2017-06-21T13:58:26.096Z,34.2
2017-06-21T13:59:33.601Z,36.3
2017-06-21T14:00:41.103Z,34.5
2017-06-21T14:01:48.274Z,35.8
2017-06-21T14:02:55.598Z,36
2017-06-21T14:04:03.453Z,34.9
2017-06-21T14:05:10.954Z,34.8
2017-06-21T14:06:18.459Z,35.8
2017-06-21T14:07:25.955Z,35.6
2017-06-21T14:08:33.450Z,35.6
2017-06-21T14:09:40.984Z,34.7
2017-06-21T14:10:48.482Z,36.4
2017-06-21T14:11:55.649Z,35.2
2017-06-21T14:13:02.491Z,33.9
2017-06-21T14:14:10.003Z,35.8
2017-06-21T14:15:17.805Z,33
2017-06-21T14:16:24.977Z,34.1
2017-06-21T14:17:32.143Z,34.5
2017-06-21T14:18:39.642Z,31.3
2017-06-21T14:19:47.152Z,32.6
2017-06-21T14:20:54.952Z,31.7
2017-06-21T14:22:02.720Z,32.6
2017-06-21T14:23:10.221Z,35.8
2017-06-21T14:24:17.740Z,35.7
2017-06-21T14:25:25.243Z,33.8
2017-06-21T14:26:33.051Z,34
2017-06-21T14:27:40.575Z,33.4
2017-06-21T14:28:48.079Z,32.2
2017-06-21T14:29:55.583Z,32.2
2017-06-21T14:31:03.083Z,33.4
2017-06-21T14:32:10.940Z,33.7
2017-06-21T14:33:18.463Z,34.3
2017-06-21T14:34:25.963Z,33.9
2017-06-21T14:35:33.469Z,33.8
2017-06-21T14:36:40.646Z,34.9
2017-06-21T14:37:48.499Z,34.6
2017-06-21T14:38:55.999Z,36.1
2017-06-21T14:40:03.615Z,37.1
2017-06-21T14:41:11.129Z,37.4
2017-06-21T14:42:18.636Z,36.4
2017-06-21T14:43:26.490Z,37.1
2017-06-21T14:44:33.993Z,37.7
2017-06-21T14:45:41.490Z,36.3
2017-06-21T14:46:48.995Z,36.7
2017-06-21T14:47:56.505Z,37
2017-06-21T14:49:03.973Z,35
2017-06-21T14:50:11.486Z,35.9
2017-06-21T14:51:18.981Z,37
2017-06-21T14:52:26.484Z,37
2017-06-21T14:53:33.989Z,34.7
2017-06-21T14:54:41.851Z,36
2017-06-21T14:55:49.350Z,34
2017-06-21T14:56:56.853Z,33.4
2017-06-21T14:58:04.026Z,32.3
2017-06-21T14:59:11.531Z,33.8
2017-06-21T15:00:19.383Z,34.7
2017-06-21T15:01:26.554Z,34.9
2017-06-21T15:02:34.053Z,36.9
2017-06-21T15:03:41.551Z,35.6
2017-06-21T15:04:49.062Z,35.8
2017-06-21T15:05:56.862Z,37.1
2017-06-21T15:07:04.365Z,36.4
2017-06-21T15:08:11.876Z,36.5
2017-06-21T15:09:19.378Z,37.3